PWSweather.com
Personal Weather Stations
Station Observations
KNCGREEN1000
Bell Orchard Drive, Greensboro, NC 27455

Bell Orchard DriveGreensboro, NC 27455

Lat: 36.132, Lon: -79.8

Elevation: 876

Station Type: Acurite Atlas

Http://www.gilhutcheson.com

High Low Average
Temperature 45.8°F7.7°C 29.2°F-1.6°C 37.2°F2.9°C
Dew Point 30.8°F-0.7°C 17.1°F-8.3°C 20.9°F-6.2°C
Winds 13.0 mph 20.9 kmh Calm Calm 5.0 mph SW8.0 kmh SW
Wind Gusts -- -- --
Humidity 75% 32% 54%
Pressure 30.30 in1026.1 mb 29.96 in1014.6 mb -
Precipitation 0.00 in0.0 mm - -
Hour Temp Dew Point Humidity Winds Wind Gusts Pressure Precip Precip Rate Daily Precip Total
12:03 AM 40.7°F4.8°C 30.8°F-0.7°C 68% 7.0 mph NE11.3 kmh NE -- 29.96 in1014.6 mb 0.00 in0.0 mm 0.00 in0.0 mm 0.00 in0.0 mm
12:08 AM 40.6°F4.8°C 30.8°F-0.7°C 68% 5.0 mph N8.0 kmh N -- 29.96 in1014.6 mb 0.00 in0.0 mm 0.00 in0.0 mm 0.00 in0.0 mm
12:13 AM 40.4°F4.7°C 30.6°F-0.8°C 68% 9.0 mph NE14.5 kmh NE -- 29.96 in1014.6 mb 0.00 in0.0 mm 0.00 in0.0 mm 0.00 in0.0 mm
12:18 AM 40.2°F4.6°C 30.4°F-0.9°C 68% 3.0 mph NNW4.8 kmh NNW -- 29.96 in1014.6 mb 0.00 in0.0 mm 0.00 in0.0 mm 0.00 in0.0 mm
12:23 AM 39.8°F4.3°C 30.3°F-0.9°C 69% 7.0 mph N11.3 kmh N -- 29.97 in1014.9 mb 0.00 in0.0 mm 0.00 in0.0 mm 0.00 in0.0 mm
12:28 AM 39.8°F4.3°C 29.9°F-1.2°C 68% 5.0 mph N8.0 kmh N -- 29.96 in1014.6 mb 0.00 in0.0 mm 0.00 in0.0 mm 0.00 in0.0 mm
12:33 AM 39.6°F4.2°C 30.1°F-1.1°C 69% 8.0 mph NNW12.9 kmh NNW -- 29.97 in1014.9 mb 0.00 in0.0 mm 0.00 in0.0 mm 0.00 in0.0 mm
12:38 AM 39.5°F4.2°C 30.1°F-1.1°C 69% 5.0 mph NNE8.0 kmh NNE -- 29.96 in1014.6 mb 0.00 in0.0 mm 0.00 in0.0 mm 0.00 in0.0 mm
12:43 AM 39.2°F4.0°C 30.1°F-1.1°C 70% 7.0 mph NE11.3 kmh NE -- 29.97 in1014.9 mb 0.00 in0.0 mm 0.00 in0.0 mm 0.00 in0.0 mm
12:48 AM 39.2°F4.0°C 29.8°F-1.2°C 69% 4.0 mph NW6.4 kmh NW -- 29.97 in1014.9 mb 0.00 in0.0 mm 0.00 in0.0 mm 0.00 in0.0 mm
12:53 AM 39.2°F4.0°C 29.4°F-1.4°C 68% 7.0 mph NNW11.3 kmh NNW -- 29.97 in1014.9 mb 0.00 in0.0 mm 0.00 in0.0 mm 0.00 in0.0 mm
12:58 AM 38.7°F3.7°C 29.6°F-1.3°C 70% 4.0 mph NNE6.4 kmh NNE -- 29.97 in1014.9 mb 0.00 in0.0 mm 0.00 in0.0 mm 0.00 in0.0 mm
01:03 AM 38.5°F3.6°C 29.8°F-1.2°C 71% 7.0 mph NNW11.3 kmh NNW -- 29.97 in1014.9 mb 0.00 in0.0 mm 0.00 in0.0 mm 0.00 in0.0 mm
01:08 AM 38.4°F3.6°C 29.8°F-1.2°C 71% 3.0 mph N4.8 kmh N -- 29.97 in1014.9 mb 0.00 in0.0 mm 0.00 in0.0 mm 0.00 in0.0 mm
01:13 AM 38.2°F3.4°C 29.4°F-1.4°C 71% 5.0 mph N8.0 kmh N -- 29.98 in1015.2 mb 0.00 in0.0 mm 0.00 in0.0 mm 0.00 in0.0 mm
01:18 AM 38.0°F3.3°C 29.6°F-1.3°C 72% 4.0 mph NW6.4 kmh NW -- 29.98 in1015.2 mb 0.00 in0.0 mm 0.00 in0.0 mm 0.00 in0.0 mm
01:23 AM 37.9°F3.3°C 30.0°F-1.1°C 73% 2.0 mph NNE3.2 kmh NNE -- 29.99 in1015.6 mb 0.00 in0.0 mm 0.00 in0.0 mm 0.00 in0.0 mm
01:28 AM 37.7°F3.2°C 30.1°F-1.1°C 74% 3.0 mph NNW4.8 kmh NNW -- 29.99 in1015.6 mb 0.00 in0.0 mm 0.00 in0.0 mm 0.00 in0.0 mm
01:33 AM 37.5°F3.1°C 29.9°F-1.2°C 74% 3.0 mph NNE4.8 kmh NNE -- 29.99 in1015.6 mb 0.00 in0.0 mm 0.00 in0.0 mm 0.00 in0.0 mm
01:38 AM 37.5°F3.1°C 29.6°F-1.3°C 73% 5.0 mph N8.0 kmh N -- 30.00 in1015.9 mb 0.00 in0.0 mm 0.00 in0.0 mm 0.00 in0.0 mm
01:43 AM 37.5°F3.1°C 29.3°F-1.5°C 72% 4.0 mph NNE6.4 kmh NNE -- 30.00 in1015.9 mb 0.00 in0.0 mm 0.00 in0.0 mm 0.00 in0.0 mm
01:48 AM 37.3°F2.9°C 29.6°F-1.3°C 74% 2.0 mph NNE3.2 kmh NNE -- 30.00 in1015.9 mb 0.00 in0.0 mm 0.00 in0.0 mm 0.00 in0.0 mm
01:53 AM 37.1°F2.8°C 29.8°F-1.2°C 75% 4.0 mph N6.4 kmh N -- 30.00 in1015.9 mb 0.00 in0.0 mm 0.00 in0.0 mm 0.00 in0.0 mm
01:58 AM 36.7°F2.6°C 29.4°F-1.4°C 75% 2.0 mph NNE3.2 kmh NNE -- 30.00 in1015.9 mb 0.00 in0.0 mm 0.00 in0.0 mm 0.00 in0.0 mm
02:03 AM 36.6°F2.6°C 28.7°F-1.8°C 73% 2.0 mph SW3.2 kmh SW -- 30.01 in1016.3 mb 0.00 in0.0 mm 0.00 in0.0 mm 0.00 in0.0 mm
02:08 AM 36.5°F2.5°C 28.9°F-1.7°C 74% 4.0 mph NNE6.4 kmh NNE -- 30.01 in1016.3 mb 0.00 in0.0 mm 0.00 in0.0 mm 0.00 in0.0 mm
02:13 AM 36.3°F2.4°C 28.4°F-2.0°C 73% 3.0 mph NNE4.8 kmh NNE -- 30.01 in1016.3 mb 0.00 in0.0 mm 0.00 in0.0 mm 0.00 in0.0 mm
02:18 AM 36.2°F2.3°C 27.9°F-2.3°C 72% 7.0 mph N11.3 kmh N -- 30.01 in1016.3 mb 0.00 in0.0 mm 0.00 in0.0 mm 0.00 in0.0 mm
02:23 AM 36.2°F2.3°C 27.5°F-2.5°C 71% 4.0 mph NNE6.4 kmh NNE -- 30.02 in1016.6 mb 0.00 in0.0 mm 0.00 in0.0 mm 0.00 in0.0 mm
02:28 AM 35.9°F2.2°C 27.4°F-2.6°C 71% 5.0 mph N8.0 kmh N -- 30.02 in1016.6 mb 0.00 in0.0 mm 0.00 in0.0 mm 0.00 in0.0 mm
02:33 AM 35.8°F2.1°C 26.8°F-2.9°C 70% 4.0 mph N6.4 kmh N -- 30.02 in1016.6 mb 0.00 in0.0 mm 0.00 in0.0 mm 0.00 in0.0 mm
02:38 AM 35.8°F2.1°C 26.5°F-3.1°C 69% 6.0 mph NNW9.7 kmh NNW -- 30.03 in1016.9 mb 0.00 in0.0 mm 0.00 in0.0 mm 0.00 in0.0 mm
02:43 AM 35.7°F2.1°C 27.2°F-2.7°C 71% 6.0 mph N9.7 kmh N -- 30.03 in1016.9 mb 0.00 in0.0 mm 0.00 in0.0 mm 0.00 in0.0 mm
02:48 AM 35.2°F1.8°C 26.3°F-3.2°C 70% 6.0 mph NW9.7 kmh NW -- 30.04 in1017.3 mb 0.00 in0.0 mm 0.00 in0.0 mm 0.00 in0.0 mm
02:53 AM 35.1°F1.7°C 26.1°F-3.3°C 70% 4.0 mph NNE6.4 kmh NNE -- 30.04 in1017.3 mb 0.00 in0.0 mm 0.00 in0.0 mm 0.00 in0.0 mm
02:58 AM 34.9°F1.6°C 26.3°F-3.2°C 71% 6.0 mph NNE9.7 kmh NNE -- 30.05 in1017.6 mb 0.00 in0.0 mm 0.00 in0.0 mm 0.00 in0.0 mm
03:03 AM 35.0°F1.7°C 26.5°F-3.1°C 71% 5.0 mph N8.0 kmh N -- 30.04 in1017.3 mb 0.00 in0.0 mm 0.00 in0.0 mm 0.00 in0.0 mm
03:08 AM 34.8°F1.6°C 26.3°F-3.2°C 71% 6.0 mph 9.7 kmh -- 30.05 in1017.6 mb 0.00 in0.0 mm 0.00 in0.0 mm 0.00 in0.0 mm
03:13 AM 34.8°F1.6°C 26.3°F-3.2°C 71% 8.0 mph NNE12.9 kmh NNE -- 30.05 in1017.6 mb 0.00 in0.0 mm 0.00 in0.0 mm 0.00 in0.0 mm
03:18 AM 34.7°F1.5°C 26.1°F-3.3°C 71% 5.0 mph NNW8.0 kmh NNW -- 30.05 in1017.6 mb 0.00 in0.0 mm 0.00 in0.0 mm 0.00 in0.0 mm
03:23 AM 34.4°F1.3°C 25.5°F-3.6°C 70% 4.0 mph N6.4 kmh N -- 30.05 in1017.6 mb 0.00 in0.0 mm 0.00 in0.0 mm 0.00 in0.0 mm
03:28 AM 34.4°F1.3°C 25.5°F-3.6°C 70% 7.0 mph NW11.3 kmh NW -- 30.06 in1017.9 mb 0.00 in0.0 mm 0.00 in0.0 mm 0.00 in0.0 mm
03:33 AM 34.3°F1.3°C 25.5°F-3.6°C 70% 8.0 mph NW12.9 kmh NW -- 30.06 in1017.9 mb 0.00 in0.0 mm 0.00 in0.0 mm 0.00 in0.0 mm
03:38 AM 34.2°F1.2°C 24.6°F-4.1°C 68% 6.0 mph NNW9.7 kmh NNW -- 30.06 in1017.9 mb 0.00 in0.0 mm 0.00 in0.0 mm 0.00 in0.0 mm
03:43 AM 34.2°F1.2°C 24.2°F-4.3°C 67% 10.0 mph N16.1 kmh N -- 30.06 in1017.9 mb 0.00 in0.0 mm 0.00 in0.0 mm 0.00 in0.0 mm
03:48 AM 34.2°F1.2°C 23.1°F-4.9°C 64% 10.0 mph NNW16.1 kmh NNW -- 30.06 in1017.9 mb 0.00 in0.0 mm 0.00 in0.0 mm 0.00 in0.0 mm
03:53 AM 34.1°F1.2°C 23.9°F-4.5°C 66% 7.0 mph NNW11.3 kmh NNW -- 30.06 in1017.9 mb 0.00 in0.0 mm 0.00 in0.0 mm 0.00 in0.0 mm
03:58 AM 33.7°F0.9°C 22.2°F-5.4°C 63% 7.0 mph NW11.3 kmh NW -- 30.06 in1017.9 mb 0.00 in0.0 mm 0.00 in0.0 mm 0.00 in0.0 mm
04:03 AM 33.8°F1.0°C 22.4°F-5.3°C 63% 3.0 mph NNW4.8 kmh NNW -- 30.07 in1018.3 mb 0.00 in0.0 mm 0.00 in0.0 mm 0.00 in0.0 mm
04:08 AM 33.5°F0.8°C 22.4°F-5.3°C 64% 5.0 mph NW8.0 kmh NW -- 30.06 in1017.9 mb 0.00 in0.0 mm 0.00 in0.0 mm 0.00 in0.0 mm
04:13 AM 33.4°F0.8°C 22.1°F-5.5°C 63% 5.0 mph N8.0 kmh N -- 30.07 in1018.3 mb 0.00 in0.0 mm 0.00 in0.0 mm 0.00 in0.0 mm
04:18 AM 33.3°F0.7°C 21.9°F-5.6°C 63% 4.0 mph WSW6.4 kmh WSW -- 30.07 in1018.3 mb 0.00 in0.0 mm 0.00 in0.0 mm 0.00 in0.0 mm
04:23 AM 33.2°F0.7°C 21.9°F-5.6°C 63% 5.0 mph NNW8.0 kmh NNW -- 30.07 in1018.3 mb 0.00 in0.0 mm 0.00 in0.0 mm 0.00 in0.0 mm
04:28 AM 33.0°F0.6°C 22.5°F-5.3°C 65% 4.0 mph NNW6.4 kmh NNW -- 30.07 in1018.3 mb 0.00 in0.0 mm 0.00 in0.0 mm 0.00 in0.0 mm
04:33 AM 32.8°F0.4°C 22.1°F-5.5°C 65% 4.0 mph NNE6.4 kmh NNE -- 30.08 in1018.6 mb 0.00 in0.0 mm 0.00 in0.0 mm 0.00 in0.0 mm
04:38 AM 32.8°F0.4°C 21.4°F-5.9°C 63% 7.0 mph N11.3 kmh N -- 30.08 in1018.6 mb 0.00 in0.0 mm 0.00 in0.0 mm 0.00 in0.0 mm
04:43 AM 32.7°F0.4°C 21.4°F-5.9°C 63% 4.0 mph N6.4 kmh N -- 30.08 in1018.6 mb 0.00 in0.0 mm 0.00 in0.0 mm 0.00 in0.0 mm
04:48 AM 32.5°F0.3°C 21.2°F-6.0°C 63% 7.0 mph NW11.3 kmh NW -- 30.08 in1018.6 mb 0.00 in0.0 mm 0.00 in0.0 mm 0.00 in0.0 mm
04:53 AM 32.4°F0.2°C 21.4°F-5.9°C 64% 3.0 mph NW4.8 kmh NW -- 30.09 in1019.0 mb 0.00 in0.0 mm 0.00 in0.0 mm 0.00 in0.0 mm
04:58 AM 32.4°F0.2°C 21.0°F-6.1°C 63% 4.0 mph 6.4 kmh -- 30.09 in1019.0 mb 0.00 in0.0 mm 0.00 in0.0 mm 0.00 in0.0 mm
05:03 AM 32.2°F0.1°C 22.0°F-5.6°C 66% 6.0 mph NW9.7 kmh NW -- 30.09 in1019.0 mb 0.00 in0.0 mm 0.00 in0.0 mm 0.00 in0.0 mm
05:08 AM 32.0°F0.0°C 21.4°F-5.9°C 65% 5.0 mph NE8.0 kmh NE -- 30.09 in1019.0 mb 0.00 in0.0 mm 0.00 in0.0 mm 0.00 in0.0 mm
05:13 AM 32.1°F0.1°C 21.2°F-6.0°C 64% 3.0 mph NNE4.8 kmh NNE -- 30.09 in1019.0 mb 0.00 in0.0 mm 0.00 in0.0 mm 0.00 in0.0 mm
05:18 AM 32.0°F0.0°C 21.4°F-5.9°C 65% 4.0 mph NNE6.4 kmh NNE -- 30.10 in1019.3 mb 0.00 in0.0 mm 0.00 in0.0 mm 0.00 in0.0 mm
05:23 AM 31.8°F-0.1°C 21.3°F-5.9°C 65% 3.0 mph NNW4.8 kmh NNW -- 30.10 in1019.3 mb 0.00 in0.0 mm 0.00 in0.0 mm 0.00 in0.0 mm
05:28 AM 31.7°F-0.2°C 21.5°F-5.8°C 66% 4.0 mph NNE6.4 kmh NNE -- 30.10 in1019.3 mb 0.00 in0.0 mm 0.00 in0.0 mm 0.00 in0.0 mm
05:33 AM 31.6°F-0.2°C 21.1°F-6.1°C 65% 4.0 mph N6.4 kmh N -- 30.10 in1019.3 mb 0.00 in0.0 mm 0.00 in0.0 mm 0.00 in0.0 mm
05:38 AM 31.5°F-0.3°C 21.3°F-5.9°C 66% 5.0 mph NNE8.0 kmh NNE -- 30.11 in1019.6 mb 0.00 in0.0 mm 0.00 in0.0 mm 0.00 in0.0 mm
05:43 AM 31.3°F-0.4°C 20.7°F-6.3°C 65% 7.0 mph NW11.3 kmh NW -- 30.11 in1019.6 mb 0.00 in0.0 mm 0.00 in0.0 mm 0.00 in0.0 mm
05:48 AM 31.2°F-0.4°C 21.1°F-6.1°C 66% 3.0 mph NNW4.8 kmh NNW -- 30.11 in1019.6 mb 0.00 in0.0 mm 0.00 in0.0 mm 0.00 in0.0 mm
05:53 AM 31.2°F-0.4°C 21.1°F-6.1°C 66% 3.0 mph N4.8 kmh N -- 30.11 in1019.6 mb 0.00 in0.0 mm 0.00 in0.0 mm 0.00 in0.0 mm
05:58 AM 31.3°F-0.4°C 21.1°F-6.1°C 66% 3.0 mph NNW4.8 kmh NNW -- 30.12 in1020.0 mb 0.00 in0.0 mm 0.00 in0.0 mm 0.00 in0.0 mm
06:03 AM 31.1°F-0.5°C 20.9°F-6.2°C 66% 4.0 mph NE6.4 kmh NE -- 30.12 in1020.0 mb 0.00 in0.0 mm 0.00 in0.0 mm 0.00 in0.0 mm
06:08 AM 31.0°F-0.6°C 20.8°F-6.2°C 66% 4.0 mph NW6.4 kmh NW -- 30.12 in1020.0 mb 0.00 in0.0 mm 0.00 in0.0 mm 0.00 in0.0 mm
06:13 AM 31.0°F-0.6°C 20.8°F-6.2°C 66% 4.0 mph N6.4 kmh N -- 30.12 in1020.0 mb 0.00 in0.0 mm 0.00 in0.0 mm 0.00 in0.0 mm
06:18 AM 30.9°F-0.6°C 20.8°F-6.2°C 66% 2.0 mph N3.2 kmh N -- 30.12 in1020.0 mb 0.00 in0.0 mm 0.00 in0.0 mm 0.00 in0.0 mm
06:23 AM 30.8°F-0.7°C 20.6°F-6.3°C 66% 5.0 mph N8.0 kmh N -- 30.13 in1020.3 mb 0.00 in0.0 mm 0.00 in0.0 mm 0.00 in0.0 mm
06:28 AM 30.6°F-0.8°C 20.8°F-6.2°C 67% 4.0 mph N6.4 kmh N -- 30.13 in1020.3 mb 0.00 in0.0 mm 0.00 in0.0 mm 0.00 in0.0 mm
06:33 AM 30.4°F-0.9°C 20.6°F-6.3°C 67% 2.0 mph NE3.2 kmh NE -- 30.13 in1020.3 mb 0.00 in0.0 mm 0.00 in0.0 mm 0.00 in0.0 mm
06:38 AM 30.3°F-0.9°C 20.6°F-6.3°C 67% 2.0 mph N3.2 kmh N -- 30.14 in1020.7 mb 0.00 in0.0 mm 0.00 in0.0 mm 0.00 in0.0 mm
06:43 AM 30.2°F-1.0°C 20.8°F-6.2°C 68% 2.0 mph NE3.2 kmh NE -- 30.14 in1020.7 mb 0.00 in0.0 mm 0.00 in0.0 mm 0.00 in0.0 mm
06:48 AM 30.0°F-1.1°C 21.0°F-6.1°C 69% 4.0 mph NNW6.4 kmh NNW -- 30.14 in1020.7 mb 0.00 in0.0 mm 0.00 in0.0 mm 0.00 in0.0 mm
06:53 AM 29.9°F-1.2°C 20.8°F-6.2°C 69% 2.0 mph N3.2 kmh N -- 30.14 in1020.7 mb 0.00 in0.0 mm 0.00 in0.0 mm 0.00 in0.0 mm
06:58 AM 29.6°F-1.3°C 21.0°F-6.1°C 70% 2.0 mph NE3.2 kmh NE -- 30.14 in1020.7 mb 0.00 in0.0 mm 0.00 in0.0 mm 0.00 in0.0 mm
07:03 AM 29.5°F-1.4°C 20.4°F-6.4°C 69% 1.0 mph NE1.6 kmh NE -- 30.15 in1021.0 mb 0.00 in0.0 mm 0.00 in0.0 mm 0.00 in0.0 mm
07:08 AM 29.5°F-1.4°C 20.8°F-6.2°C 70% 3.0 mph N4.8 kmh N -- 30.15 in1021.0 mb 0.00 in0.0 mm 0.00 in0.0 mm 0.00 in0.0 mm
07:13 AM 29.5°F-1.4°C 20.8°F-6.2°C 70% 2.0 mph SE3.2 kmh SE -- 30.15 in1021.0 mb 0.00 in0.0 mm 0.00 in0.0 mm 0.00 in0.0 mm
07:18 AM 29.4°F-1.4°C 20.8°F-6.2°C 70% 2.0 mph NE3.2 kmh NE -- 30.15 in1021.0 mb 0.00 in0.0 mm 0.00 in0.0 mm 0.00 in0.0 mm
07:23 AM 29.4°F-1.4°C 20.8°F-6.2°C 70% 2.0 mph ENE3.2 kmh ENE -- 30.15 in1021.0 mb 0.00 in0.0 mm 0.00 in0.0 mm 0.00 in0.0 mm
07:28 AM 29.3°F-1.5°C 20.3°F-6.5°C 69% 3.0 mph NE4.8 kmh NE -- 30.15 in1021.0 mb 0.00 in0.0 mm 0.00 in0.0 mm 0.00 in0.0 mm
07:33 AM 29.2°F-1.6°C 20.4°F-6.4°C 70% 1.0 mph E1.6 kmh E -- 30.15 in1021.0 mb 0.00 in0.0 mm 0.00 in0.0 mm 0.00 in0.0 mm
07:38 AM 29.2°F-1.6°C 20.1°F-6.6°C 69% 3.0 mph N4.8 kmh N -- 30.15 in1021.0 mb 0.00 in0.0 mm 0.00 in0.0 mm 0.00 in0.0 mm
07:43 AM 29.4°F-1.4°C 20.8°F-6.2°C 70% 2.0 mph N3.2 kmh N -- 30.15 in1021.0 mb 0.00 in0.0 mm 0.00 in0.0 mm 0.00 in0.0 mm
07:48 AM 29.3°F-1.5°C 20.3°F-6.5°C 69% 3.0 mph N4.8 kmh N -- 30.15 in1021.0 mb 0.00 in0.0 mm 0.00 in0.0 mm 0.00 in0.0 mm
07:53 AM 29.4°F-1.4°C 20.4°F-6.4°C 69% 1.0 mph S1.6 kmh S -- 30.15 in1021.0 mb 0.00 in0.0 mm 0.00 in0.0 mm 0.00 in0.0 mm
07:58 AM 29.4°F-1.4°C 20.1°F-6.6°C 68% 2.0 mph NE3.2 kmh NE -- 30.16 in1021.3 mb 0.00 in0.0 mm 0.00 in0.0 mm 0.00 in0.0 mm
08:03 AM 29.4°F-1.4°C 20.1°F-6.6°C 68% 3.0 mph N4.8 kmh N -- 30.16 in1021.3 mb 0.00 in0.0 mm 0.00 in0.0 mm 0.00 in0.0 mm
08:08 AM 29.6°F-1.3°C 20.6°F-6.3°C 69% 1.0 mph W1.6 kmh W -- 30.16 in1021.3 mb 0.00 in0.0 mm 0.00 in0.0 mm 0.00 in0.0 mm
08:13 AM 29.7°F-1.3°C 20.3°F-6.5°C 68% 1.0 mph E1.6 kmh E -- 30.16 in1021.3 mb 0.00 in0.0 mm 0.00 in0.0 mm 0.00 in0.0 mm
08:18 AM 29.7°F-1.3°C 20.3°F-6.5°C 68% 2.0 mph N3.2 kmh N -- 30.16 in1021.3 mb 0.00 in0.0 mm 0.00 in0.0 mm 0.00 in0.0 mm
08:23 AM 29.9°F-1.2°C 20.4°F-6.4°C 68% 1.0 mph SE1.6 kmh SE -- 30.17 in1021.7 mb 0.00 in0.0 mm 0.00 in0.0 mm 0.00 in0.0 mm
08:28 AM 29.9°F-1.2°C 19.7°F-6.8°C 66% 1.0 mph WNW1.6 kmh WNW -- 30.17 in1021.7 mb 0.00 in0.0 mm 0.00 in0.0 mm 0.00 in0.0 mm
08:33 AM 30.2°F-1.0°C 20.4°F-6.4°C 67% 3.0 mph NNW4.8 kmh NNW -- 30.17 in1021.7 mb 0.00 in0.0 mm 0.00 in0.0 mm 0.00 in0.0 mm
08:38 AM 30.5°F-0.8°C 20.4°F-6.4°C 66% 2.0 mph N3.2 kmh N -- 30.17 in1021.7 mb 0.00 in0.0 mm 0.00 in0.0 mm 0.00 in0.0 mm
08:43 AM 30.9°F-0.6°C 20.4°F-6.4°C 65% 1.0 mph SW1.6 kmh SW -- 30.17 in1021.7 mb 0.00 in0.0 mm 0.00 in0.0 mm 0.00 in0.0 mm
08:48 AM 31.3°F-0.4°C 20.4°F-6.4°C 64% 4.0 mph N6.4 kmh N -- 30.18 in1022.0 mb 0.00 in0.0 mm 0.00 in0.0 mm 0.00 in0.0 mm
08:53 AM 31.4°F-0.3°C 20.2°F-6.6°C 63% 2.0 mph NNW3.2 kmh NNW -- 30.18 in1022.0 mb 0.00 in0.0 mm 0.00 in0.0 mm 0.00 in0.0 mm
08:58 AM 31.7°F-0.2°C 19.6°F-6.9°C 61% 4.0 mph NW6.4 kmh NW -- 30.18 in1022.0 mb 0.00 in0.0 mm 0.00 in0.0 mm 0.00 in0.0 mm
09:03 AM 32.4°F0.2°C 19.5°F-6.9°C 59% 3.0 mph SW4.8 kmh SW -- 30.18 in1022.0 mb 0.00 in0.0 mm 0.00 in0.0 mm 0.00 in0.0 mm
09:08 AM 32.5°F0.3°C 19.6°F-6.9°C 59% Calm Calm -- 30.19 in1022.4 mb 0.00 in0.0 mm 0.00 in0.0 mm 0.00 in0.0 mm
09:13 AM 32.7°F0.4°C 19.8°F-6.8°C 59% 3.0 mph NE4.8 kmh NE -- 30.19 in1022.4 mb 0.00 in0.0 mm 0.00 in0.0 mm 0.00 in0.0 mm
09:18 AM 33.0°F0.6°C 19.7°F-6.8°C 58% 2.0 mph WNW3.2 kmh WNW -- 30.19 in1022.4 mb 0.00 in0.0 mm 0.00 in0.0 mm 0.00 in0.0 mm
09:23 AM 33.3°F0.7°C 19.5°F-6.9°C 57% 4.0 mph WSW6.4 kmh WSW -- 30.19 in1022.4 mb 0.00 in0.0 mm 0.00 in0.0 mm 0.00 in0.0 mm
09:28 AM 33.8°F1.0°C 19.2°F-7.1°C 55% 5.0 mph NW8.0 kmh NW -- 30.19 in1022.4 mb 0.00 in0.0 mm 0.00 in0.0 mm 0.00 in0.0 mm
09:33 AM 34.1°F1.2°C 18.6°F-7.4°C 53% 3.0 mph N4.8 kmh N -- 30.20 in1022.7 mb 0.00 in0.0 mm 0.00 in0.0 mm 0.00 in0.0 mm
09:38 AM 34.7°F1.5°C 18.7°F-7.4°C 52% 2.0 mph NE3.2 kmh NE -- 30.20 in1022.7 mb 0.00 in0.0 mm 0.00 in0.0 mm 0.00 in0.0 mm
09:43 AM 35.2°F1.8°C 19.2°F-7.1°C 52% 7.0 mph W11.3 kmh W -- 30.20 in1022.7 mb 0.00 in0.0 mm 0.00 in0.0 mm 0.00 in0.0 mm
09:48 AM 35.3°F1.8°C 18.3°F-7.6°C 50% 5.0 mph NW8.0 kmh NW -- 30.20 in1022.7 mb 0.00 in0.0 mm 0.00 in0.0 mm 0.00 in0.0 mm
09:53 AM 35.5°F1.9°C 18.0°F-7.8°C 49% 3.0 mph N4.8 kmh N -- 30.20 in1022.7 mb 0.00 in0.0 mm 0.00 in0.0 mm 0.00 in0.0 mm
09:58 AM 35.5°F1.9°C 18.4°F-7.6°C 50% 4.0 mph NW6.4 kmh NW -- 30.20 in1022.7 mb 0.00 in0.0 mm 0.00 in0.0 mm 0.00 in0.0 mm
10:03 AM 35.9°F2.2°C 19.4°F-7.0°C 51% 5.0 mph NNE8.0 kmh NNE -- 30.20 in1022.7 mb 0.00 in0.0 mm 0.00 in0.0 mm 0.00 in0.0 mm
10:08 AM 36.0°F2.2°C 18.5°F-7.5°C 49% 8.0 mph N12.9 kmh N -- 30.20 in1022.7 mb 0.00 in0.0 mm 0.00 in0.0 mm 0.00 in0.0 mm
10:13 AM 36.0°F2.2°C 18.5°F-7.5°C 49% 6.0 mph N9.7 kmh N -- 30.20 in1022.7 mb 0.00 in0.0 mm 0.00 in0.0 mm 0.00 in0.0 mm
10:18 AM 36.5°F2.5°C 18.5°F-7.5°C 48% 6.0 mph NW9.7 kmh NW -- 30.20 in1022.7 mb 0.00 in0.0 mm 0.00 in0.0 mm 0.00 in0.0 mm
10:23 AM 37.2°F2.9°C 17.1°F-8.3°C 44% 12.0 mph W19.3 kmh W -- 30.21 in1023.0 mb 0.00 in0.0 mm 0.00 in0.0 mm 0.00 in0.0 mm
10:28 AM 37.2°F2.9°C 17.6°F-8.0°C 45% 12.0 mph NW19.3 kmh NW -- 30.20 in1022.7 mb 0.00 in0.0 mm 0.00 in0.0 mm 0.00 in0.0 mm
10:33 AM 37.3°F2.9°C 17.1°F-8.3°C 44% 6.0 mph N9.7 kmh N -- 30.20 in1022.7 mb 0.00 in0.0 mm 0.00 in0.0 mm 0.00 in0.0 mm
10:38 AM 37.9°F3.3°C 17.8°F-7.9°C 44% 4.0 mph WNW6.4 kmh WNW -- 30.21 in1023.0 mb 0.00 in0.0 mm 0.00 in0.0 mm 0.00 in0.0 mm
10:43 AM 37.9°F3.3°C 18.3°F-7.6°C 45% 10.0 mph N16.1 kmh N -- 30.20 in1022.7 mb 0.00 in0.0 mm 0.00 in0.0 mm 0.00 in0.0 mm
10:48 AM 37.9°F3.3°C 18.3°F-7.6°C 45% 7.0 mph 11.3 kmh -- 30.20 in1022.7 mb 0.00 in0.0 mm 0.00 in0.0 mm 0.00 in0.0 mm
10:53 AM 38.3°F3.5°C 18.6°F-7.4°C 45% 6.0 mph N9.7 kmh N -- 30.20 in1022.7 mb 0.00 in0.0 mm 0.00 in0.0 mm 0.00 in0.0 mm
10:58 AM 38.6°F3.7°C 18.9°F-7.3°C 45% 6.0 mph NW9.7 kmh NW -- 30.20 in1022.7 mb 0.00 in0.0 mm 0.00 in0.0 mm 0.00 in0.0 mm
11:03 AM 38.8°F3.8°C 18.6°F-7.4°C 44% 6.0 mph W9.7 kmh W -- 30.20 in1022.7 mb 0.00 in0.0 mm 0.00 in0.0 mm 0.00 in0.0 mm
11:08 AM 38.5°F3.6°C 17.7°F-7.9°C 43% 6.0 mph NW9.7 kmh NW -- 30.19 in1022.4 mb 0.00 in0.0 mm 0.00 in0.0 mm 0.00 in0.0 mm
11:13 AM 38.8°F3.8°C 18.6°F-7.4°C 44% 7.0 mph NW11.3 kmh NW -- 30.19 in1022.4 mb 0.00 in0.0 mm 0.00 in0.0 mm 0.00 in0.0 mm
11:18 AM 39.0°F3.9°C 18.7°F-7.4°C 44% 4.0 mph NNW6.4 kmh NNW -- 30.19 in1022.4 mb 0.00 in0.0 mm 0.00 in0.0 mm 0.00 in0.0 mm
11:23 AM 39.1°F3.9°C 17.7°F-7.9°C 42% 6.0 mph N9.7 kmh N -- 30.19 in1022.4 mb 0.00 in0.0 mm 0.00 in0.0 mm 0.00 in0.0 mm
11:28 AM 39.1°F3.9°C 17.7°F-7.9°C 42% 3.0 mph SE4.8 kmh SE -- 30.18 in1022.0 mb 0.00 in0.0 mm 0.00 in0.0 mm 0.00 in0.0 mm
11:33 AM 39.5°F4.2°C 17.6°F-8.0°C 41% 6.0 mph NW9.7 kmh NW -- 30.18 in1022.0 mb 0.00 in0.0 mm 0.00 in0.0 mm 0.00 in0.0 mm
11:38 AM 39.8°F4.3°C 18.3°F-7.6°C 42% 7.0 mph N11.3 kmh N -- 30.18 in1022.0 mb 0.00 in0.0 mm 0.00 in0.0 mm 0.00 in0.0 mm
11:43 AM 40.1°F4.5°C 19.2°F-7.1°C 43% 6.0 mph N9.7 kmh N -- 30.17 in1021.7 mb 0.00 in0.0 mm 0.00 in0.0 mm 0.00 in0.0 mm
11:47 AM 40.4°F4.7°C 17.8°F-7.9°C 40% 5.0 mph N8.0 kmh N -- 30.17 in1021.7 mb 0.00 in0.0 mm 0.00 in0.0 mm 0.00 in0.0 mm
11:53 AM 41.1°F5.1°C 19.6°F-6.9°C 42% 4.0 mph NNW6.4 kmh NNW -- 30.17 in1021.7 mb 0.00 in0.0 mm 0.00 in0.0 mm 0.00 in0.0 mm
11:58 AM 41.7°F5.4°C 20.1°F-6.6°C 42% 6.0 mph N9.7 kmh N -- 30.16 in1021.3 mb 0.00 in0.0 mm 0.00 in0.0 mm 0.00 in0.0 mm
12:03 PM 41.3°F5.2°C 18.6°F-7.4°C 40% 4.0 mph NW6.4 kmh NW -- 30.17 in1021.7 mb 0.00 in0.0 mm 0.00 in0.0 mm 0.00 in0.0 mm
12:08 PM 41.9°F5.5°C 20.3°F-6.5°C 42% 7.0 mph WNW11.3 kmh WNW -- 30.16 in1021.3 mb 0.00 in0.0 mm 0.00 in0.0 mm 0.00 in0.0 mm
12:13 PM 41.9°F5.5°C 19.1°F-7.2°C 40% 5.0 mph NE8.0 kmh NE -- 30.15 in1021.0 mb 0.00 in0.0 mm 0.00 in0.0 mm 0.00 in0.0 mm
12:18 PM 42.4°F5.8°C 19.0°F-7.2°C 39% 6.0 mph NNW9.7 kmh NNW -- 30.15 in1021.0 mb 0.00 in0.0 mm 0.00 in0.0 mm 0.00 in0.0 mm
12:23 PM 42.6°F5.9°C 17.3°F-8.2°C 36% 10.0 mph NW16.1 kmh NW -- 30.15 in1021.0 mb 0.00 in0.0 mm 0.00 in0.0 mm 0.00 in0.0 mm
12:28 PM 42.8°F6.0°C 18.1°F-7.7°C 37% 11.0 mph NW17.7 kmh NW -- 30.15 in1021.0 mb 0.00 in0.0 mm 0.00 in0.0 mm 0.00 in0.0 mm
12:33 PM 43.2°F6.2°C 19.7°F-6.8°C 39% 2.0 mph S3.2 kmh S -- 30.15 in1021.0 mb 0.00 in0.0 mm 0.00 in0.0 mm 0.00 in0.0 mm
12:38 PM 43.4°F6.3°C 18.6°F-7.4°C 37% 9.0 mph WSW14.5 kmh WSW -- 30.15 in1021.0 mb 0.00 in0.0 mm 0.00 in0.0 mm 0.00 in0.0 mm
12:43 PM 44.3°F6.8°C 19.4°F-7.0°C 37% 2.0 mph SW3.2 kmh SW -- 30.15 in1021.0 mb 0.00 in0.0 mm 0.00 in0.0 mm 0.00 in0.0 mm
12:48 PM 43.4°F6.3°C 19.2°F-7.1°C 38% 4.0 mph NW6.4 kmh NW -- 30.15 in1021.0 mb 0.00 in0.0 mm 0.00 in0.0 mm 0.00 in0.0 mm
12:53 PM 43.5°F6.4°C 19.4°F-7.0°C 38% 5.0 mph NNW8.0 kmh NNW -- 30.15 in1021.0 mb 0.00 in0.0 mm 0.00 in0.0 mm 0.00 in0.0 mm
12:58 PM 43.5°F6.4°C 18.7°F-7.4°C 37% 6.0 mph SSE9.7 kmh SSE -- 30.14 in1020.7 mb 0.00 in0.0 mm 0.00 in0.0 mm 0.00 in0.0 mm
01:03 PM 43.2°F6.2°C 18.4°F-7.6°C 37% 5.0 mph NE8.0 kmh NE -- 30.14 in1020.7 mb 0.00 in0.0 mm 0.00 in0.0 mm 0.00 in0.0 mm
01:08 PM 44.0°F6.7°C 20.5°F-6.4°C 39% 2.0 mph SW3.2 kmh SW -- 30.14 in1020.7 mb 0.00 in0.0 mm 0.00 in0.0 mm 0.00 in0.0 mm
01:13 PM 43.3°F6.3°C 18.6°F-7.4°C 37% 7.0 mph NW11.3 kmh NW -- 30.13 in1020.3 mb 0.00 in0.0 mm 0.00 in0.0 mm 0.00 in0.0 mm
01:18 PM 43.8°F6.6°C 20.3°F-6.5°C 39% 4.0 mph N6.4 kmh N -- 30.13 in1020.3 mb 0.00 in0.0 mm 0.00 in0.0 mm 0.00 in0.0 mm
01:23 PM 44.4°F6.9°C 19.6°F-6.9°C 37% 5.0 mph WSW8.0 kmh WSW -- 30.13 in1020.3 mb 0.00 in0.0 mm 0.00 in0.0 mm 0.00 in0.0 mm
01:28 PM 43.8°F6.6°C 19.1°F-7.2°C 37% 12.0 mph NW19.3 kmh NW -- 30.13 in1020.3 mb 0.00 in0.0 mm 0.00 in0.0 mm 0.00 in0.0 mm
01:33 PM 44.1°F6.7°C 20.5°F-6.4°C 39% 7.0 mph WNW11.3 kmh WNW -- 30.12 in1020.0 mb 0.00 in0.0 mm 0.00 in0.0 mm 0.00 in0.0 mm
01:38 PM 44.1°F6.7°C 18.6°F-7.4°C 36% 5.0 mph N8.0 kmh N -- 30.12 in1020.0 mb 0.00 in0.0 mm 0.00 in0.0 mm 0.00 in0.0 mm
01:43 PM 44.1°F6.7°C 18.6°F-7.4°C 36% 6.0 mph W9.7 kmh W -- 30.12 in1020.0 mb 0.00 in0.0 mm 0.00 in0.0 mm 0.00 in0.0 mm
01:48 PM 45.2°F7.3°C 18.9°F-7.3°C 35% 4.0 mph NNW6.4 kmh NNW -- 30.12 in1020.0 mb 0.00 in0.0 mm 0.00 in0.0 mm 0.00 in0.0 mm
01:53 PM 45.4°F7.4°C 20.4°F-6.4°C 37% 8.0 mph N12.9 kmh N -- 30.12 in1020.0 mb 0.00 in0.0 mm 0.00 in0.0 mm 0.00 in0.0 mm
01:57 PM 44.7°F7.1°C 19.9°F-6.7°C 37% 10.0 mph WSW16.1 kmh WSW -- 30.12 in1020.0 mb 0.00 in0.0 mm 0.00 in0.0 mm 0.00 in0.0 mm
02:03 PM 44.5°F6.9°C 18.9°F-7.3°C 36% 5.0 mph NW8.0 kmh NW -- 30.12 in1020.0 mb 0.00 in0.0 mm 0.00 in0.0 mm 0.00 in0.0 mm
02:08 PM 45.0°F7.2°C 19.4°F-7.0°C 36% 5.0 mph WNW8.0 kmh WNW -- 30.12 in1020.0 mb 0.00 in0.0 mm 0.00 in0.0 mm 0.00 in0.0 mm
02:13 PM 45.1°F7.3°C 18.9°F-7.3°C 35% 4.0 mph WSW6.4 kmh WSW -- 30.12 in1020.0 mb 0.00 in0.0 mm 0.00 in0.0 mm 0.00 in0.0 mm
02:18 PM 45.1°F7.3°C 18.9°F-7.3°C 35% 4.0 mph WSW6.4 kmh WSW -- 30.12 in1020.0 mb 0.00 in0.0 mm 0.00 in0.0 mm 0.00 in0.0 mm
02:22 PM 45.5°F7.5°C 20.5°F-6.4°C 37% 3.0 mph ENE4.8 kmh ENE -- 30.12 in1020.0 mb 0.00 in0.0 mm 0.00 in0.0 mm 0.00 in0.0 mm
02:28 PM 45.3°F7.4°C 19.1°F-7.2°C 35% 9.0 mph WNW14.5 kmh WNW -- 30.11 in1019.6 mb 0.00 in0.0 mm 0.00 in0.0 mm 0.00 in0.0 mm
02:33 PM 45.2°F7.3°C 18.9°F-7.3°C 35% 4.0 mph NW6.4 kmh NW -- 30.11 in1019.6 mb 0.00 in0.0 mm 0.00 in0.0 mm 0.00 in0.0 mm
02:38 PM 45.2°F7.3°C 20.2°F-6.6°C 37% 2.0 mph E3.2 kmh E -- 30.11 in1019.6 mb 0.00 in0.0 mm 0.00 in0.0 mm 0.00 in0.0 mm
02:43 PM 45.2°F7.3°C 18.2°F-7.7°C 34% 9.0 mph WNW14.5 kmh WNW -- 30.11 in1019.6 mb 0.00 in0.0 mm 0.00 in0.0 mm 0.00 in0.0 mm
02:48 PM 45.2°F7.3°C 18.9°F-7.3°C 35% 4.0 mph WSW6.4 kmh WSW -- 30.11 in1019.6 mb 0.00 in0.0 mm 0.00 in0.0 mm 0.00 in0.0 mm
02:53 PM 45.4°F7.4°C 19.1°F-7.2°C 35% 3.0 mph S4.8 kmh S -- 30.11 in1019.6 mb 0.00 in0.0 mm 0.00 in0.0 mm 0.00 in0.0 mm
02:58 PM 45.5°F7.5°C 17.8°F-7.9°C 33% 4.0 mph N6.4 kmh N -- 30.11 in1019.6 mb 0.00 in0.0 mm 0.00 in0.0 mm 0.00 in0.0 mm
03:03 PM 45.6°F7.6°C 18.7°F-7.4°C 34% 4.0 mph WSW6.4 kmh WSW -- 30.11 in1019.6 mb 0.00 in0.0 mm 0.00 in0.0 mm 0.00 in0.0 mm
03:08 PM 45.7°F7.6°C 17.3°F-8.2°C 32% 7.0 mph W11.3 kmh W -- 30.11 in1019.6 mb 0.00 in0.0 mm 0.00 in0.0 mm 0.00 in0.0 mm
03:13 PM 45.8°F7.7°C 19.5°F-6.9°C 35% 5.0 mph SSE8.0 kmh SSE -- 30.11 in1019.6 mb 0.00 in0.0 mm 0.00 in0.0 mm 0.00 in0.0 mm
03:18 PM 45.7°F7.6°C 18.0°F-7.8°C 33% 6.0 mph N9.7 kmh N -- 30.12 in1020.0 mb 0.00 in0.0 mm 0.00 in0.0 mm 0.00 in0.0 mm
03:23 PM 45.8°F7.7°C 17.4°F-8.1°C 32% 6.0 mph WSW9.7 kmh WSW -- 30.12 in1020.0 mb 0.00 in0.0 mm 0.00 in0.0 mm 0.00 in0.0 mm
03:28 PM 45.7°F7.6°C 17.3°F-8.2°C 32% 4.0 mph NW6.4 kmh NW -- 30.12 in1020.0 mb 0.00 in0.0 mm 0.00 in0.0 mm 0.00 in0.0 mm
03:33 PM 45.7°F7.6°C 18.0°F-7.8°C 33% 3.0 mph NNW4.8 kmh NNW -- 30.12 in1020.0 mb 0.00 in0.0 mm 0.00 in0.0 mm 0.00 in0.0 mm
03:38 PM 45.7°F7.6°C 17.3°F-8.2°C 32% 7.0 mph NNW11.3 kmh NNW -- 30.12 in1020.0 mb 0.00 in0.0 mm 0.00 in0.0 mm 0.00 in0.0 mm
03:43 PM 45.5°F7.5°C 17.1°F-8.3°C 32% 13.0 mph NW20.9 kmh NW -- 30.12 in1020.0 mb 0.00 in0.0 mm 0.00 in0.0 mm 0.00 in0.0 mm
03:48 PM 45.3°F7.4°C 17.7°F-7.9°C 33% 4.0 mph 6.4 kmh -- 30.12 in1020.0 mb 0.00 in0.0 mm 0.00 in0.0 mm 0.00 in0.0 mm
03:53 PM 45.2°F7.3°C 18.2°F-7.7°C 34% 9.0 mph NNW14.5 kmh NNW -- 30.12 in1020.0 mb 0.00 in0.0 mm 0.00 in0.0 mm 0.00 in0.0 mm
03:58 PM 45.0°F7.2°C 17.4°F-8.1°C 33% 6.0 mph N9.7 kmh N -- 30.13 in1020.3 mb 0.00 in0.0 mm 0.00 in0.0 mm 0.00 in0.0 mm
04:02 PM 44.8°F7.1°C 18.6°F-7.4°C 35% 3.0 mph WNW4.8 kmh WNW -- 30.13 in1020.3 mb 0.00 in0.0 mm 0.00 in0.0 mm 0.00 in0.0 mm
04:08 PM 44.7°F7.1°C 18.6°F-7.4°C 35% 13.0 mph NW20.9 kmh NW -- 30.13 in1020.3 mb 0.00 in0.0 mm 0.00 in0.0 mm 0.00 in0.0 mm
04:13 PM 44.5°F6.9°C 17.6°F-8.0°C 34% 7.0 mph NW11.3 kmh NW -- 30.14 in1020.7 mb 0.00 in0.0 mm 0.00 in0.0 mm 0.00 in0.0 mm
04:17 PM 44.4°F6.9°C 18.9°F-7.3°C 36% 7.0 mph NW11.3 kmh NW -- 30.14 in1020.7 mb 0.00 in0.0 mm 0.00 in0.0 mm 0.00 in0.0 mm
04:18 PM 44.4°F6.9°C 18.9°F-7.3°C 36% 6.0 mph WNW9.7 kmh WNW -- 30.14 in1020.7 mb 0.00 in0.0 mm 0.00 in0.0 mm 0.00 in0.0 mm
04:23 PM 44.2°F6.8°C 18.1°F-7.7°C 35% 11.0 mph N17.7 kmh N -- 30.14 in1020.7 mb 0.00 in0.0 mm 0.00 in0.0 mm 0.00 in0.0 mm
04:28 PM 44.0°F6.7°C 19.2°F-7.1°C 37% 7.0 mph W11.3 kmh W -- 30.14 in1020.7 mb 0.00 in0.0 mm 0.00 in0.0 mm 0.00 in0.0 mm
04:33 PM 43.8°F6.6°C 18.4°F-7.6°C 36% 7.0 mph WNW11.3 kmh WNW -- 30.15 in1021.0 mb 0.00 in0.0 mm 0.00 in0.0 mm 0.00 in0.0 mm
04:38 PM 43.6°F6.4°C 19.4°F-7.0°C 38% 6.0 mph NW9.7 kmh NW -- 30.15 in1021.0 mb 0.00 in0.0 mm 0.00 in0.0 mm 0.00 in0.0 mm
04:43 PM 43.4°F6.3°C 19.2°F-7.1°C 38% 6.0 mph NNW9.7 kmh NNW -- 30.15 in1021.0 mb 0.00 in0.0 mm 0.00 in0.0 mm 0.00 in0.0 mm
04:48 PM 43.0°F6.1°C 20.1°F-6.6°C 40% 7.0 mph NW11.3 kmh NW -- 30.14 in1020.7 mb 0.00 in0.0 mm 0.00 in0.0 mm 0.00 in0.0 mm
04:53 PM 42.9°F6.1°C 19.5°F-6.9°C 39% 4.0 mph NNW6.4 kmh NNW -- 30.14 in1020.7 mb 0.00 in0.0 mm 0.00 in0.0 mm 0.00 in0.0 mm
04:58 PM 42.8°F6.0°C 19.9°F-6.7°C 40% 5.0 mph NNW8.0 kmh NNW -- 30.15 in1021.0 mb 0.00 in0.0 mm 0.00 in0.0 mm 0.00 in0.0 mm
05:03 PM 42.7°F5.9°C 19.8°F-6.8°C 40% 4.0 mph NW6.4 kmh NW -- 30.15 in1021.0 mb 0.00 in0.0 mm 0.00 in0.0 mm 0.00 in0.0 mm
05:08 PM 42.5°F5.8°C 19.6°F-6.9°C 40% 4.0 mph NNW6.4 kmh NNW -- 30.15 in1021.0 mb 0.00 in0.0 mm 0.00 in0.0 mm 0.00 in0.0 mm
05:13 PM 42.4°F5.8°C 20.2°F-6.6°C 41% 5.0 mph NW8.0 kmh NW -- 30.15 in1021.0 mb 0.00 in0.0 mm 0.00 in0.0 mm 0.00 in0.0 mm
05:18 PM 42.1°F5.6°C 19.9°F-6.7°C 41% 4.0 mph W6.4 kmh W -- 30.15 in1021.0 mb 0.00 in0.0 mm 0.00 in0.0 mm 0.00 in0.0 mm
05:23 PM 42.1°F5.6°C 19.9°F-6.7°C 41% 5.0 mph NW8.0 kmh NW -- 30.16 in1021.3 mb 0.00 in0.0 mm 0.00 in0.0 mm 0.00 in0.0 mm
05:28 PM 41.6°F5.3°C 19.9°F-6.7°C 42% 8.0 mph NNW12.9 kmh NNW -- 30.16 in1021.3 mb 0.00 in0.0 mm 0.00 in0.0 mm 0.00 in0.0 mm
05:33 PM 41.7°F5.4°C 20.1°F-6.6°C 42% 5.0 mph N8.0 kmh N -- 30.16 in1021.3 mb 0.00 in0.0 mm 0.00 in0.0 mm 0.00 in0.0 mm
05:38 PM 41.5°F5.3°C 20.5°F-6.4°C 43% 7.0 mph NNW11.3 kmh NNW -- 30.16 in1021.3 mb 0.00 in0.0 mm 0.00 in0.0 mm 0.00 in0.0 mm
05:42 PM 41.3°F5.2°C 21.4°F-5.9°C 45% 4.0 mph W6.4 kmh W -- 30.16 in1021.3 mb 0.00 in0.0 mm 0.00 in0.0 mm 0.00 in0.0 mm
05:48 PM 41.0°F5.0°C 20.0°F-6.7°C 43% 7.0 mph NW11.3 kmh NW -- 30.16 in1021.3 mb 0.00 in0.0 mm 0.00 in0.0 mm 0.00 in0.0 mm
05:53 PM 41.0°F5.0°C 20.5°F-6.4°C 44% 3.0 mph E4.8 kmh E -- 30.16 in1021.3 mb 0.00 in0.0 mm 0.00 in0.0 mm 0.00 in0.0 mm
05:57 PM 41.0°F5.0°C 21.1°F-6.1°C 45% 3.0 mph E4.8 kmh E -- 30.17 in1021.7 mb 0.00 in0.0 mm 0.00 in0.0 mm 0.00 in0.0 mm
05:58 PM 41.0°F5.0°C 21.1°F-6.1°C 45% 4.0 mph NW6.4 kmh NW -- 30.17 in1021.7 mb 0.00 in0.0 mm 0.00 in0.0 mm 0.00 in0.0 mm
06:03 PM 40.8°F4.9°C 20.9°F-6.2°C 45% 5.0 mph W8.0 kmh W -- 30.17 in1021.7 mb 0.00 in0.0 mm 0.00 in0.0 mm 0.00 in0.0 mm
06:08 PM 40.7°F4.8°C 21.3°F-5.9°C 46% 2.0 mph NW3.2 kmh NW -- 30.17 in1021.7 mb 0.00 in0.0 mm 0.00 in0.0 mm 0.00 in0.0 mm
06:13 PM 40.4°F4.7°C 21.1°F-6.1°C 46% 3.0 mph NNW4.8 kmh NNW -- 30.17 in1021.7 mb 0.00 in0.0 mm 0.00 in0.0 mm 0.00 in0.0 mm
06:18 PM 40.2°F4.6°C 20.4°F-6.4°C 45% 6.0 mph NNW9.7 kmh NNW -- 30.17 in1021.7 mb 0.00 in0.0 mm 0.00 in0.0 mm 0.00 in0.0 mm
06:23 PM 40.0°F4.4°C 21.1°F-6.1°C 47% 2.0 mph NNW3.2 kmh NNW -- 30.18 in1022.0 mb 0.00 in0.0 mm 0.00 in0.0 mm 0.00 in0.0 mm
06:28 PM 39.6°F4.2°C 20.8°F-6.2°C 47% 4.0 mph NW6.4 kmh NW -- 30.18 in1022.0 mb 0.00 in0.0 mm 0.00 in0.0 mm 0.00 in0.0 mm
06:33 PM 39.4°F4.1°C 20.6°F-6.3°C 47% 3.0 mph NW4.8 kmh NW -- 30.18 in1022.0 mb 0.00 in0.0 mm 0.00 in0.0 mm 0.00 in0.0 mm
06:38 PM 39.3°F4.1°C 21.1°F-6.1°C 48% 3.0 mph NW4.8 kmh NW -- 30.18 in1022.0 mb 0.00 in0.0 mm 0.00 in0.0 mm 0.00 in0.0 mm
06:43 PM 39.0°F3.9°C 20.3°F-6.5°C 47% 3.0 mph W4.8 kmh W -- 30.19 in1022.4 mb 0.00 in0.0 mm 0.00 in0.0 mm 0.00 in0.0 mm
06:48 PM 39.0°F3.9°C 20.8°F-6.2°C 48% 6.0 mph NW9.7 kmh NW -- 30.19 in1022.4 mb 0.00 in0.0 mm 0.00 in0.0 mm 0.00 in0.0 mm
06:53 PM 39.2°F4.0°C 20.5°F-6.4°C 47% 4.0 mph NNW6.4 kmh NNW -- 30.19 in1022.4 mb 0.00 in0.0 mm 0.00 in0.0 mm 0.00 in0.0 mm
06:58 PM 39.0°F3.9°C 20.8°F-6.2°C 48% 4.0 mph WSW6.4 kmh WSW -- 30.19 in1022.4 mb 0.00 in0.0 mm 0.00 in0.0 mm 0.00 in0.0 mm
07:03 PM 38.8°F3.8°C 20.6°F-6.3°C 48% 3.0 mph NNE4.8 kmh NNE -- 30.19 in1022.4 mb 0.00 in0.0 mm 0.00 in0.0 mm 0.00 in0.0 mm
07:08 PM 38.6°F3.7°C 21.0°F-6.1°C 49% 1.0 mph SW1.6 kmh SW -- 30.19 in1022.4 mb 0.00 in0.0 mm 0.00 in0.0 mm 0.00 in0.0 mm
07:13 PM 38.4°F3.6°C 20.8°F-6.2°C 49% 4.0 mph SW6.4 kmh SW -- 30.19 in1022.4 mb 0.00 in0.0 mm 0.00 in0.0 mm 0.00 in0.0 mm
07:18 PM 38.2°F3.4°C 20.5°F-6.4°C 49% 9.0 mph NNW14.5 kmh NNW -- 30.19 in1022.4 mb 0.00 in0.0 mm 0.00 in0.0 mm 0.00 in0.0 mm
07:23 PM 38.4°F3.6°C 19.8°F-6.8°C 47% 6.0 mph NNW9.7 kmh NNW -- 30.20 in1022.7 mb 0.00 in0.0 mm 0.00 in0.0 mm 0.00 in0.0 mm
07:27 PM 38.7°F3.7°C 19.5°F-6.9°C 46% 9.0 mph N14.5 kmh N -- 30.20 in1022.7 mb 0.00 in0.0 mm 0.00 in0.0 mm 0.00 in0.0 mm
07:33 PM 38.7°F3.7°C 19.5°F-6.9°C 46% 6.0 mph NW9.7 kmh NW -- 30.20 in1022.7 mb 0.00 in0.0 mm 0.00 in0.0 mm 0.00 in0.0 mm
07:38 PM 38.7°F3.7°C 18.9°F-7.3°C 45% 8.0 mph N12.9 kmh N -- 30.20 in1022.7 mb 0.00 in0.0 mm 0.00 in0.0 mm 0.00 in0.0 mm
07:43 PM 38.6°F3.7°C 19.5°F-6.9°C 46% 4.0 mph NW6.4 kmh NW -- 30.21 in1023.0 mb 0.00 in0.0 mm 0.00 in0.0 mm 0.00 in0.0 mm
07:48 PM 38.5°F3.6°C 19.8°F-6.8°C 47% 5.0 mph NNW8.0 kmh NNW -- 30.21 in1023.0 mb 0.00 in0.0 mm 0.00 in0.0 mm 0.00 in0.0 mm
07:53 PM 38.3°F3.5°C 19.1°F-7.2°C 46% 6.0 mph NW9.7 kmh NW -- 30.21 in1023.0 mb 0.00 in0.0 mm 0.00 in0.0 mm 0.00 in0.0 mm
07:58 PM 38.3°F3.5°C 20.1°F-6.6°C 48% 8.0 mph NNW12.9 kmh NNW -- 30.21 in1023.0 mb 0.00 in0.0 mm 0.00 in0.0 mm 0.00 in0.0 mm
08:03 PM 38.2°F3.4°C 20.0°F-6.7°C 48% 6.0 mph N9.7 kmh N -- 30.21 in1023.0 mb 0.00 in0.0 mm 0.00 in0.0 mm 0.00 in0.0 mm
08:08 PM 37.9°F3.3°C 20.3°F-6.5°C 49% 5.0 mph N8.0 kmh N -- 30.22 in1023.4 mb 0.00 in0.0 mm 0.00 in0.0 mm 0.00 in0.0 mm
08:13 PM 37.5°F3.1°C 20.9°F-6.2°C 51% 5.0 mph NNE8.0 kmh NNE -- 30.22 in1023.4 mb 0.00 in0.0 mm 0.00 in0.0 mm 0.00 in0.0 mm
08:18 PM 37.2°F2.9°C 20.1°F-6.6°C 50% 4.0 mph N6.4 kmh N -- 30.22 in1023.4 mb 0.00 in0.0 mm 0.00 in0.0 mm 0.00 in0.0 mm
08:23 PM 37.2°F2.9°C 19.6°F-6.9°C 49% 5.0 mph N8.0 kmh N -- 30.23 in1023.7 mb 0.00 in0.0 mm 0.00 in0.0 mm 0.00 in0.0 mm
08:28 PM 36.8°F2.7°C 20.2°F-6.6°C 51% 6.0 mph NW9.7 kmh NW -- 30.23 in1023.7 mb 0.00 in0.0 mm 0.00 in0.0 mm 0.00 in0.0 mm
08:33 PM 36.5°F2.5°C 19.9°F-6.7°C 51% 4.0 mph WNW6.4 kmh WNW -- 30.23 in1023.7 mb 0.00 in0.0 mm 0.00 in0.0 mm 0.00 in0.0 mm
08:38 PM 36.5°F2.5°C 19.9°F-6.7°C 51% 7.0 mph N11.3 kmh N -- 30.23 in1023.7 mb 0.00 in0.0 mm 0.00 in0.0 mm 0.00 in0.0 mm
08:43 PM 36.4°F2.4°C 20.2°F-6.6°C 52% 3.0 mph NW4.8 kmh NW -- 30.23 in1023.7 mb 0.00 in0.0 mm 0.00 in0.0 mm 0.00 in0.0 mm
08:47 PM 36.2°F2.3°C 19.6°F-6.9°C 51% 6.0 mph NNW9.7 kmh NNW -- 30.23 in1023.7 mb 0.00 in0.0 mm 0.00 in0.0 mm 0.00 in0.0 mm
08:53 PM 36.1°F2.3°C 19.6°F-6.9°C 51% 1.0 mph NE1.6 kmh NE -- 30.23 in1023.7 mb 0.00 in0.0 mm 0.00 in0.0 mm 0.00 in0.0 mm
08:58 PM 36.0°F2.2°C 19.4°F-7.0°C 51% 7.0 mph NNW11.3 kmh NNW -- 30.24 in1024.0 mb 0.00 in0.0 mm 0.00 in0.0 mm 0.00 in0.0 mm
09:03 PM 35.8°F2.1°C 18.8°F-7.3°C 50% 1.0 mph W1.6 kmh W -- 30.24 in1024.0 mb 0.00 in0.0 mm 0.00 in0.0 mm 0.00 in0.0 mm
09:08 PM 35.6°F2.0°C 19.1°F-7.2°C 51% 1.0 mph E1.6 kmh E -- 30.24 in1024.0 mb 0.00 in0.0 mm 0.00 in0.0 mm 0.00 in0.0 mm
09:13 PM 35.3°F1.8°C 18.7°F-7.4°C 51% 2.0 mph NNW3.2 kmh NNW -- 30.24 in1024.0 mb 0.00 in0.0 mm 0.00 in0.0 mm 0.00 in0.0 mm
09:18 PM 35.3°F1.8°C 18.3°F-7.6°C 50% 6.0 mph NNW9.7 kmh NNW -- 30.24 in1024.0 mb 0.00 in0.0 mm 0.00 in0.0 mm 0.00 in0.0 mm
09:22 PM 35.2°F1.8°C 18.7°F-7.4°C 51% 3.0 mph N4.8 kmh N -- 30.24 in1024.0 mb 0.00 in0.0 mm 0.00 in0.0 mm 0.00 in0.0 mm
09:28 PM 35.1°F1.7°C 18.1°F-7.7°C 50% 3.0 mph NNW4.8 kmh NNW -- 30.25 in1024.4 mb 0.00 in0.0 mm 0.00 in0.0 mm 0.00 in0.0 mm
09:33 PM 35.0°F1.7°C 17.6°F-8.0°C 49% 3.0 mph W4.8 kmh W -- 30.25 in1024.4 mb 0.00 in0.0 mm 0.00 in0.0 mm 0.00 in0.0 mm
09:38 PM 35.0°F1.7°C 18.6°F-7.4°C 51% 3.0 mph NNW4.8 kmh NNW -- 30.25 in1024.4 mb 0.00 in0.0 mm 0.00 in0.0 mm 0.00 in0.0 mm
09:43 PM 34.6°F1.4°C 18.5°F-7.5°C 52% 2.0 mph SSW3.2 kmh SSW -- 30.26 in1024.7 mb 0.00 in0.0 mm 0.00 in0.0 mm 0.00 in0.0 mm
09:48 PM 34.4°F1.3°C 17.9°F-7.8°C 51% 6.0 mph NNW9.7 kmh NNW -- 30.25 in1024.4 mb 0.00 in0.0 mm 0.00 in0.0 mm 0.00 in0.0 mm
09:53 PM 34.3°F1.3°C 18.8°F-7.3°C 53% 3.0 mph NW4.8 kmh NW -- 30.26 in1024.7 mb 0.00 in0.0 mm 0.00 in0.0 mm 0.00 in0.0 mm
09:58 PM 34.1°F1.2°C 18.6°F-7.4°C 53% 2.0 mph WSW3.2 kmh WSW -- 30.26 in1024.7 mb 0.00 in0.0 mm 0.00 in0.0 mm 0.00 in0.0 mm
10:03 PM 33.9°F1.1°C 18.9°F-7.3°C 54% 6.0 mph NW9.7 kmh NW -- 30.26 in1024.7 mb 0.00 in0.0 mm 0.00 in0.0 mm 0.00 in0.0 mm
10:08 PM 33.7°F0.9°C 18.1°F-7.7°C 53% 5.0 mph NW8.0 kmh NW -- 30.26 in1024.7 mb 0.00 in0.0 mm 0.00 in0.0 mm 0.00 in0.0 mm
10:12 PM 33.6°F0.9°C 18.6°F-7.4°C 54% 2.0 mph N3.2 kmh N -- 30.26 in1024.7 mb 0.00 in0.0 mm 0.00 in0.0 mm 0.00 in0.0 mm
10:18 PM 33.4°F0.8°C 18.4°F-7.6°C 54% 5.0 mph NNW8.0 kmh NNW -- 30.26 in1024.7 mb 0.00 in0.0 mm 0.00 in0.0 mm 0.00 in0.0 mm
10:23 PM 33.4°F0.8°C 18.0°F-7.8°C 53% 4.0 mph WNW6.4 kmh WNW -- 30.26 in1024.7 mb 0.00 in0.0 mm 0.00 in0.0 mm 0.00 in0.0 mm
10:27 PM 33.7°F0.9°C 18.1°F-7.7°C 53% 6.0 mph W9.7 kmh W -- 30.26 in1024.7 mb 0.00 in0.0 mm 0.00 in0.0 mm 0.00 in0.0 mm
10:33 PM 33.7°F0.9°C 17.7°F-7.9°C 52% 5.0 mph NW8.0 kmh NW -- 30.26 in1024.7 mb 0.00 in0.0 mm 0.00 in0.0 mm 0.00 in0.0 mm
10:38 PM 33.6°F0.9°C 17.7°F-7.9°C 52% 3.0 mph WSW4.8 kmh WSW -- 30.26 in1024.7 mb 0.00 in0.0 mm 0.00 in0.0 mm 0.00 in0.0 mm
10:43 PM 33.5°F0.8°C 18.0°F-7.8°C 53% 2.0 mph WSW3.2 kmh WSW -- 30.26 in1024.7 mb 0.00 in0.0 mm 0.00 in0.0 mm 0.00 in0.0 mm
10:48 PM 33.1°F0.6°C 17.6°F-8.0°C 53% 5.0 mph NW8.0 kmh NW -- 30.27 in1025.1 mb 0.00 in0.0 mm 0.00 in0.0 mm 0.00 in0.0 mm
10:53 PM 32.9°F0.5°C 18.3°F-7.6°C 55% 1.0 mph W1.6 kmh W -- 30.27 in1025.1 mb 0.00 in0.0 mm 0.00 in0.0 mm 0.00 in0.0 mm
10:58 PM 32.6°F0.3°C 18.4°F-7.6°C 56% 2.0 mph NW3.2 kmh NW -- 30.27 in1025.1 mb 0.00 in0.0 mm 0.00 in0.0 mm 0.00 in0.0 mm
11:03 PM 32.3°F0.2°C 18.7°F-7.4°C 57% 2.0 mph WNW3.2 kmh WNW -- 30.27 in1025.1 mb 0.00 in0.0 mm 0.00 in0.0 mm 0.00 in0.0 mm
11:08 PM 32.0°F0.0°C 18.3°F-7.6°C 57% Calm Calm -- 30.27 in1025.1 mb 0.00 in0.0 mm 0.00 in0.0 mm 0.00 in0.0 mm
11:13 PM 31.7°F-0.2°C 18.0°F-7.8°C 57% 1.0 mph S1.6 kmh S -- 30.28 in1025.4 mb 0.00 in0.0 mm 0.00 in0.0 mm 0.00 in0.0 mm
11:18 PM 31.6°F-0.2°C 18.0°F-7.8°C 57% Calm Calm -- 30.28 in1025.4 mb 0.00 in0.0 mm 0.00 in0.0 mm 0.00 in0.0 mm
11:23 PM 31.3°F-0.4°C 18.1°F-7.7°C 58% 2.0 mph SE3.2 kmh SE -- 30.28 in1025.4 mb 0.00 in0.0 mm 0.00 in0.0 mm 0.00 in0.0 mm
11:28 PM 31.1°F-0.5°C 18.3°F-7.6°C 59% 3.0 mph SW4.8 kmh SW -- 30.28 in1025.4 mb 0.00 in0.0 mm 0.00 in0.0 mm 0.00 in0.0 mm
11:33 PM 31.0°F-0.6°C 18.5°F-7.5°C 60% Calm Calm -- 30.29 in1025.7 mb 0.00 in0.0 mm 0.00 in0.0 mm 0.00 in0.0 mm
11:37 PM 30.8°F-0.7°C 18.3°F-7.6°C 60% 2.0 mph NW3.2 kmh NW -- 30.29 in1025.7 mb 0.00 in0.0 mm 0.00 in0.0 mm 0.00 in0.0 mm
11:43 PM 30.6°F-0.8°C 18.6°F-7.4°C 61% 2.0 mph NW3.2 kmh NW -- 30.29 in1025.7 mb 0.00 in0.0 mm 0.00 in0.0 mm 0.00 in0.0 mm
11:48 PM 30.5°F-0.8°C 19.7°F-6.8°C 64% 2.0 mph NNW3.2 kmh NNW -- 30.30 in1026.1 mb 0.00 in0.0 mm 0.00 in0.0 mm 0.00 in0.0 mm
11:53 PM 30.5°F-0.8°C 19.7°F-6.8°C 64% 3.0 mph NNW4.8 kmh NNW -- 30.30 in1026.1 mb 0.00 in0.0 mm 0.00 in0.0 mm 0.00 in0.0 mm
11:58 PM 30.6°F-0.8°C 18.9°F-7.3°C 62% 2.0 mph NE3.2 kmh NE -- 30.30 in1026.1 mb 0.00 in0.0 mm 0.00 in0.0 mm 0.00 in0.0 mm